sensor_id;sensor_type;location;lat;lon;timestamp;P1;durP1;ratioP1;P2;durP2;ratioP2
22939;SDS011;11636;52.086;5.090;2024-01-10T00:00:52;6.97;;;2.80;;
22939;SDS011;11636;52.086;5.090;2024-01-10T00:03:19;5.82;;;3.30;;
22939;SDS011;11636;52.086;5.090;2024-01-10T00:05:53;5.60;;;3.20;;
22939;SDS011;11636;52.086;5.090;2024-01-10T00:08:20;7.32;;;3.42;;
22939;SDS011;11636;52.086;5.090;2024-01-10T00:10:47;6.35;;;3.28;;
22939;SDS011;11636;52.086;5.090;2024-01-10T00:13:21;6.43;;;3.25;;
22939;SDS011;11636;52.086;5.090;2024-01-10T00:15:48;5.70;;;2.72;;
22939;SDS011;11636;52.086;5.090;2024-01-10T00:18:15;5.05;;;2.75;;
22939;SDS011;11636;52.086;5.090;2024-01-10T00:20:49;6.18;;;3.10;;
22939;SDS011;11636;52.086;5.090;2024-01-10T00:23:16;8.85;;;3.42;;
22939;SDS011;11636;52.086;5.090;2024-01-10T00:25:49;6.63;;;3.20;;
22939;SDS011;11636;52.086;5.090;2024-01-10T00:28:16;5.93;;;3.25;;
22939;SDS011;11636;52.086;5.090;2024-01-10T00:30:44;6.95;;;3.22;;
22939;SDS011;11636;52.086;5.090;2024-01-10T00:33:20;5.75;;;3.15;;
22939;SDS011;11636;52.086;5.090;2024-01-10T00:35:48;6.53;;;3.08;;
22939;SDS011;11636;52.086;5.090;2024-01-10T00:38:14;6.03;;;3.03;;
22939;SDS011;11636;52.086;5.090;2024-01-10T00:40:48;7.85;;;3.42;;
22939;SDS011;11636;52.086;5.090;2024-01-10T00:43:21;8.50;;;4.00;;
22939;SDS011;11636;52.086;5.090;2024-01-10T00:45:55;7.88;;;3.33;;
22939;SDS011;11636;52.086;5.090;2024-01-10T00:48:21;7.80;;;3.53;;
22939;SDS011;11636;52.086;5.090;2024-01-10T00:50:55;6.82;;;3.50;;
22939;SDS011;11636;52.086;5.090;2024-01-10T00:53:22;6.20;;;3.17;;
22939;SDS011;11636;52.086;5.090;2024-01-10T00:55:55;7.22;;;3.58;;
22939;SDS011;11636;52.086;5.090;2024-01-10T00:58:22;6.28;;;3.08;;
22939;SDS011;11636;52.086;5.090;2024-01-10T01:00:56;7.32;;;3.58;;
22939;SDS011;11636;52.086;5.090;2024-01-10T01:03:23;6.15;;;3.40;;
22939;SDS011;11636;52.086;5.090;2024-01-10T01:05:56;6.97;;;3.38;;
22939;SDS011;11636;52.086;5.090;2024-01-10T01:08:23;7.47;;;3.50;;
22939;SDS011;11636;52.086;5.090;2024-01-10T01:10:50;6.40;;;3.30;;
22939;SDS011;11636;52.086;5.090;2024-01-10T01:13:23;6.82;;;3.47;;
22939;SDS011;11636;52.086;5.090;2024-01-10T01:15:50;6.68;;;3.47;;
22939;SDS011;11636;52.086;5.090;2024-01-10T01:18:23;8.43;;;3.88;;
22939;SDS011;11636;52.086;5.090;2024-01-10T01:20:56;7.03;;;3.53;;
22939;SDS011;11636;52.086;5.090;2024-01-10T01:23:23;7.55;;;3.33;;
22939;SDS011;11636;52.086;5.090;2024-01-10T01:26:07;7.20;;;3.53;;
22939;SDS011;11636;52.086;5.090;2024-01-10T01:28:34;7.97;;;3.97;;
22939;SDS011;11636;52.086;5.090;2024-01-10T01:31:08;6.93;;;3.83;;
22939;SDS011;11636;52.086;5.090;2024-01-10T01:33:42;8.32;;;4.03;;
22939;SDS011;11636;52.086;5.090;2024-01-10T01:36:15;8.02;;;4.03;;
22939;SDS011;11636;52.086;5.090;2024-01-10T01:38:48;8.55;;;3.90;;
22939;SDS011;11636;52.086;5.090;2024-01-10T01:41:15;7.20;;;3.60;;
22939;SDS011;11636;52.086;5.090;2024-01-10T01:43:48;7.30;;;3.50;;
22939;SDS011;11636;52.086;5.090;2024-01-10T01:46:21;7.65;;;4.03;;
22939;SDS011;11636;52.086;5.090;2024-01-10T01:48:49;6.57;;;3.40;;
22939;SDS011;11636;52.086;5.090;2024-01-10T01:51:23;7.63;;;3.35;;
22939;SDS011;11636;52.086;5.090;2024-01-10T01:53:50;7.53;;;3.70;;
22939;SDS011;11636;52.086;5.090;2024-01-10T01:56:25;7.63;;;3.58;;
22939;SDS011;11636;52.086;5.090;2024-01-10T01:58:58;7.43;;;4.00;;
22939;SDS011;11636;52.086;5.090;2024-01-10T02:01:25;7.53;;;3.72;;
22939;SDS011;11636;52.086;5.090;2024-01-10T02:03:52;7.03;;;3.20;;
22939;SDS011;11636;52.086;5.090;2024-01-10T02:06:27;7.25;;;4.10;;
22939;SDS011;11636;52.086;5.090;2024-01-10T02:08:56;6.97;;;3.50;;
22939;SDS011;11636;52.086;5.090;2024-01-10T02:11:30;6.93;;;3.58;;
22939;SDS011;11636;52.086;5.090;2024-01-10T02:14:04;6.50;;;3.50;;
22939;SDS011;11636;52.086;5.090;2024-01-10T02:16:32;9.80;;;3.95;;
22939;SDS011;11636;52.086;5.090;2024-01-10T02:18:59;7.07;;;3.78;;
22939;SDS011;11636;52.086;5.090;2024-01-10T02:21:34;7.13;;;3.78;;
22939;SDS011;11636;52.086;5.090;2024-01-10T02:24:07;7.85;;;3.90;;
22939;SDS011;11636;52.086;5.090;2024-01-10T02:26:34;8.35;;;4.07;;
22939;SDS011;11636;52.086;5.090;2024-01-10T02:29:07;7.82;;;3.90;;
22939;SDS011;11636;52.086;5.090;2024-01-10T02:31:34;7.65;;;3.75;;
22939;SDS011;11636;52.086;5.090;2024-01-10T02:34:01;7.95;;;3.97;;
22939;SDS011;11636;52.086;5.090;2024-01-10T02:36:34;8.10;;;4.28;;
22939;SDS011;11636;52.086;5.090;2024-01-10T02:39:01;7.88;;;3.88;;
22939;SDS011;11636;52.086;5.090;2024-01-10T02:41:34;6.60;;;3.55;;
22939;SDS011;11636;52.086;5.090;2024-01-10T02:44:01;6.90;;;4.10;;
22939;SDS011;11636;52.086;5.090;2024-01-10T02:46:34;7.55;;;3.83;;
22939;SDS011;11636;52.086;5.090;2024-01-10T02:49:01;9.05;;;3.92;;
22939;SDS011;11636;52.086;5.090;2024-01-10T02:51:50;7.55;;;4.13;;
22939;SDS011;11636;52.086;5.090;2024-01-10T02:54:30;7.32;;;4.13;;
22939;SDS011;11636;52.086;5.090;2024-01-10T02:57:03;7.30;;;3.63;;
22939;SDS011;11636;52.086;5.090;2024-01-10T02:59:30;9.95;;;4.47;;
22939;SDS011;11636;52.086;5.090;2024-01-10T03:02:03;7.97;;;4.43;;
22939;SDS011;11636;52.086;5.090;2024-01-10T03:04:36;8.65;;;4.00;;
22939;SDS011;11636;52.086;5.090;2024-01-10T03:07:03;8.25;;;3.97;;
22939;SDS011;11636;52.086;5.090;2024-01-10T03:09:36;8.43;;;4.28;;
22939;SDS011;11636;52.086;5.090;2024-01-10T03:12:03;8.02;;;4.00;;
22939;SDS011;11636;52.086;5.090;2024-01-10T03:14:30;8.95;;;3.92;;
22939;SDS011;11636;52.086;5.090;2024-01-10T03:17:05;7.90;;;4.25;;
22939;SDS011;11636;52.086;5.090;2024-01-10T03:19:32;9.77;;;4.80;;
22939;SDS011;11636;52.086;5.090;2024-01-10T03:22:05;7.50;;;4.43;;
22939;SDS011;11636;52.086;5.090;2024-01-10T03:24:38;8.55;;;4.57;;
22939;SDS011;11636;52.086;5.090;2024-01-10T03:27:05;8.35;;;4.30;;
22939;SDS011;11636;52.086;5.090;2024-01-10T03:29:32;10.05;;;4.18;;
22939;SDS011;11636;52.086;5.090;2024-01-10T03:32:07;8.50;;;4.07;;
22939;SDS011;11636;52.086;5.090;2024-01-10T03:34:41;8.90;;;4.53;;
22939;SDS011;11636;52.086;5.090;2024-01-10T03:37:15;7.13;;;4.03;;
22939;SDS011;11636;52.086;5.090;2024-01-10T03:39:42;8.68;;;4.13;;
22939;SDS011;11636;52.086;5.090;2024-01-10T03:42:15;7.60;;;3.95;;
22939;SDS011;11636;52.086;5.090;2024-01-10T03:44:42;7.18;;;4.28;;
22939;SDS011;11636;52.086;5.090;2024-01-10T03:47:15;7.57;;;4.03;;
22939;SDS011;11636;52.086;5.090;2024-01-10T03:49:42;8.00;;;4.18;;
22939;SDS011;11636;52.086;5.090;2024-01-10T03:52:22;8.38;;;4.28;;
22939;SDS011;11636;52.086;5.090;2024-01-10T03:54:49;11.10;;;4.95;;
22939;SDS011;11636;52.086;5.090;2024-01-10T03:57:23;8.00;;;4.30;;
22939;SDS011;11636;52.086;5.090;2024-01-10T03:59:50;8.55;;;4.30;;
22939;SDS011;11636;52.086;5.090;2024-01-10T04:02:16;8.50;;;4.68;;
22939;SDS011;11636;52.086;5.090;2024-01-10T04:04:50;8.10;;;3.97;;
22939;SDS011;11636;52.086;5.090;2024-01-10T04:07:17;8.00;;;4.68;;
22939;SDS011;11636;52.086;5.090;2024-01-10T04:09:50;6.72;;;3.80;;
22939;SDS011;11636;52.086;5.090;2024-01-10T04:12:17;7.57;;;4.18;;
22939;SDS011;11636;52.086;5.090;2024-01-10T04:14:44;8.65;;;4.40;;
22939;SDS011;11636;52.086;5.090;2024-01-10T04:17:17;9.75;;;4.20;;
22939;SDS011;11636;52.086;5.090;2024-01-10T04:19:50;8.20;;;4.45;;
22939;SDS011;11636;52.086;5.090;2024-01-10T04:22:17;9.00;;;4.93;;
22939;SDS011;11636;52.086;5.090;2024-01-10T04:24:45;9.43;;;4.70;;
22939;SDS011;11636;52.086;5.090;2024-01-10T04:27:18;9.15;;;4.57;;
22939;SDS011;11636;52.086;5.090;2024-01-10T04:29:45;8.60;;;4.55;;
22939;SDS011;11636;52.086;5.090;2024-01-10T04:32:18;8.10;;;4.38;;
22939;SDS011;11636;52.086;5.090;2024-01-10T04:34:45;8.30;;;4.00;;
22939;SDS011;11636;52.086;5.090;2024-01-10T04:37:12;8.93;;;4.57;;
22939;SDS011;11636;52.086;5.090;2024-01-10T04:39:46;7.40;;;4.22;;
22939;SDS011;11636;52.086;5.090;2024-01-10T04:42:19;7.85;;;4.45;;
22939;SDS011;11636;52.086;5.090;2024-01-10T04:44:52;6.85;;;3.88;;
22939;SDS011;11636;52.086;5.090;2024-01-10T04:47:19;8.93;;;4.35;;
22939;SDS011;11636;52.086;5.090;2024-01-10T04:49:52;9.30;;;4.85;;
22939;SDS011;11636;52.086;5.090;2024-01-10T04:52:19;8.45;;;4.53;;
22939;SDS011;11636;52.086;5.090;2024-01-10T04:54:46;8.63;;;4.68;;
22939;SDS011;11636;52.086;5.090;2024-01-10T04:57:19;9.30;;;4.40;;
22939;SDS011;11636;52.086;5.090;2024-01-10T04:59:46;9.23;;;4.57;;
22939;SDS011;11636;52.086;5.090;2024-01-10T05:02:19;8.00;;;4.15;;
22939;SDS011;11636;52.086;5.090;2024-01-10T05:04:52;8.55;;;4.80;;
22939;SDS011;11636;52.086;5.090;2024-01-10T05:07:26;7.40;;;4.22;;
22939;SDS011;11636;52.086;5.090;2024-01-10T05:09:53;9.48;;;4.50;;
22939;SDS011;11636;52.086;5.090;2024-01-10T05:12:20;8.32;;;4.53;;
22939;SDS011;11636;52.086;5.090;2024-01-10T05:14:53;8.65;;;4.75;;
22939;SDS011;11636;52.086;5.090;2024-01-10T05:17:20;8.10;;;4.50;;
22939;SDS011;11636;52.086;5.090;2024-01-10T05:19:47;8.40;;;4.35;;
22939;SDS011;11636;52.086;5.090;2024-01-10T05:22:20;7.13;;;4.10;;
22939;SDS011;11636;52.086;5.090;2024-01-10T05:24:48;8.43;;;4.80;;
22939;SDS011;11636;52.086;5.090;2024-01-10T05:27:21;8.93;;;4.30;;
22939;SDS011;11636;52.086;5.090;2024-01-10T05:29:48;9.15;;;4.63;;
22939;SDS011;11636;52.086;5.090;2024-01-10T05:32:21;8.13;;;4.55;;
22939;SDS011;11636;52.086;5.090;2024-01-10T05:34:48;9.77;;;5.22;;
22939;SDS011;11636;52.086;5.090;2024-01-10T05:37:22;9.15;;;4.63;;
22939;SDS011;11636;52.086;5.090;2024-01-10T05:39:49;7.85;;;4.15;;
22939;SDS011;11636;52.086;5.090;2024-01-10T05:42:16;9.25;;;4.95;;
22939;SDS011;11636;52.086;5.090;2024-01-10T05:44:56;10.80;;;5.00;;
22939;SDS011;11636;52.086;5.090;2024-01-10T05:47:23;9.27;;;4.90;;
22939;SDS011;11636;52.086;5.090;2024-01-10T05:49:56;9.25;;;5.00;;
22939;SDS011;11636;52.086;5.090;2024-01-10T05:52:23;11.23;;;5.50;;
22939;SDS011;11636;52.086;5.090;2024-01-10T05:54:50;9.57;;;5.15;;
22939;SDS011;11636;52.086;5.090;2024-01-10T05:57:23;10.40;;;5.50;;
22939;SDS011;11636;52.086;5.090;2024-01-10T05:59:56;8.98;;;4.97;;
22939;SDS011;11636;52.086;5.090;2024-01-10T06:02:30;10.32;;;4.95;;
22939;SDS011;11636;52.086;5.090;2024-01-10T06:04:57;10.82;;;5.80;;
22939;SDS011;11636;52.086;5.090;2024-01-10T06:07:32;9.00;;;5.28;;
22939;SDS011;11636;52.086;5.090;2024-01-10T06:09:59;8.75;;;5.45;;
22939;SDS011;11636;52.086;5.090;2024-01-10T06:12:33;11.32;;;5.45;;
22939;SDS011;11636;52.086;5.090;2024-01-10T06:15:00;9.88;;;5.63;;
22939;SDS011;11636;52.086;5.090;2024-01-10T06:17:33;10.75;;;5.43;;
22939;SDS011;11636;52.086;5.090;2024-01-10T06:20:07;9.52;;;5.35;;
22939;SDS011;11636;52.086;5.090;2024-01-10T06:22:35;10.13;;;5.78;;
22939;SDS011;11636;52.086;5.090;2024-01-10T06:25:08;8.52;;;4.90;;
22939;SDS011;11636;52.086;5.090;2024-01-10T06:27:41;8.98;;;5.45;;
22939;SDS011;11636;52.086;5.090;2024-01-10T06:30:08;9.07;;;5.43;;
22939;SDS011;11636;52.086;5.090;2024-01-10T06:32:35;9.70;;;5.45;;
22939;SDS011;11636;52.086;5.090;2024-01-10T06:35:09;11.13;;;6.00;;
22939;SDS011;11636;52.086;5.090;2024-01-10T06:37:37;10.48;;;5.75;;
22939;SDS011;11636;52.086;5.090;2024-01-10T06:40:11;9.18;;;5.00;;
22939;SDS011;11636;52.086;5.090;2024-01-10T06:42:38;9.70;;;5.80;;
22939;SDS011;11636;52.086;5.090;2024-01-10T06:45:06;10.25;;;5.40;;
22939;SDS011;11636;52.086;5.090;2024-01-10T06:47:40;8.65;;;5.07;;
22939;SDS011;11636;52.086;5.090;2024-01-10T06:50:13;8.80;;;5.30;;
22939;SDS011;11636;52.086;5.090;2024-01-10T06:52:40;8.52;;;4.90;;
22939;SDS011;11636;52.086;5.090;2024-01-10T06:55:13;10.35;;;5.63;;
22939;SDS011;11636;52.086;5.090;2024-01-10T06:57:48;11.82;;;5.82;;
22939;SDS011;11636;52.086;5.090;2024-01-10T07:00:17;9.57;;;5.53;;
22939;SDS011;11636;52.086;5.090;2024-01-10T07:02:54;10.48;;;5.90;;
22939;SDS011;11636;52.086;5.090;2024-01-10T07:05:21;12.60;;;6.20;;
22939;SDS011;11636;52.086;5.090;2024-01-10T07:07:54;9.43;;;5.20;;
22939;SDS011;11636;52.086;5.090;2024-01-10T07:10:27;11.50;;;5.47;;
22939;SDS011;11636;52.086;5.090;2024-01-10T07:13:11;11.38;;;5.10;;
22939;SDS011;11636;52.086;5.090;2024-01-10T07:15:38;11.43;;;5.63;;
22939;SDS011;11636;52.086;5.090;2024-01-10T07:18:11;12.70;;;5.60;;
22939;SDS011;11636;52.086;5.090;2024-01-10T07:20:38;12.43;;;5.85;;
22939;SDS011;11636;52.086;5.090;2024-01-10T07:23:05;9.15;;;5.38;;
22939;SDS011;11636;52.086;5.090;2024-01-10T07:25:38;9.85;;;4.78;;
22939;SDS011;11636;52.086;5.090;2024-01-10T07:28:05;9.63;;;4.70;;
22939;SDS011;11636;52.086;5.090;2024-01-10T07:30:38;10.68;;;5.78;;
22939;SDS011;11636;52.086;5.090;2024-01-10T07:33:05;11.95;;;5.43;;
22939;SDS011;11636;52.086;5.090;2024-01-10T07:35:40;10.65;;;5.85;;
22939;SDS011;11636;52.086;5.090;2024-01-10T07:38:07;11.18;;;5.63;;
22939;SDS011;11636;52.086;5.090;2024-01-10T07:40:40;10.55;;;5.30;;
22939;SDS011;11636;52.086;5.090;2024-01-10T07:43:08;11.40;;;5.05;;
22939;SDS011;11636;52.086;5.090;2024-01-10T07:45:43;10.20;;;5.50;;
22939;SDS011;11636;52.086;5.090;2024-01-10T07:48:10;12.10;;;5.75;;
22939;SDS011;11636;52.086;5.090;2024-01-10T07:50:44;11.95;;;5.88;;
22939;SDS011;11636;52.086;5.090;2024-01-10T07:53:11;11.10;;;5.82;;
22939;SDS011;11636;52.086;5.090;2024-01-10T07:55:37;12.60;;;5.65;;
22939;SDS011;11636;52.086;5.090;2024-01-10T07:58:10;10.15;;;5.45;;
22939;SDS011;11636;52.086;5.090;2024-01-10T08:00:43;10.18;;;5.65;;
22939;SDS011;11636;52.086;5.090;2024-01-10T08:03:11;11.38;;;5.82;;
22939;SDS011;11636;52.086;5.090;2024-01-10T08:05:38;9.68;;;5.38;;
22939;SDS011;11636;52.086;5.090;2024-01-10T08:08:11;10.63;;;5.68;;
22939;SDS011;11636;52.086;5.090;2024-01-10T08:10:39;9.02;;;4.80;;
22939;SDS011;11636;52.086;5.090;2024-01-10T08:13:13;10.63;;;5.88;;
22939;SDS011;11636;52.086;5.090;2024-01-10T08:15:40;10.23;;;5.70;;
22939;SDS011;11636;52.086;5.090;2024-01-10T08:18:14;11.32;;;5.45;;
22939;SDS011;11636;52.086;5.090;2024-01-10T08:20:41;11.32;;;5.38;;
22939;SDS011;11636;52.086;5.090;2024-01-10T08:23:08;11.80;;;5.35;;
22939;SDS011;11636;52.086;5.090;2024-01-10T08:25:41;9.80;;;5.80;;
22939;SDS011;11636;52.086;5.090;2024-01-10T08:28:10;12.23;;;5.47;;
22939;SDS011;11636;52.086;5.090;2024-01-10T08:30:43;9.63;;;5.45;;
22939;SDS011;11636;52.086;5.090;2024-01-10T08:33:10;11.65;;;5.50;;
22939;SDS011;11636;52.086;5.090;2024-01-10T08:35:43;8.70;;;4.90;;
22939;SDS011;11636;52.086;5.090;2024-01-10T08:38:17;12.55;;;5.60;;
22939;SDS011;11636;52.086;5.090;2024-01-10T08:40:44;9.80;;;5.07;;
22939;SDS011;11636;52.086;5.090;2024-01-10T08:43:11;9.60;;;5.30;;
22939;SDS011;11636;52.086;5.090;2024-01-10T08:45:44;8.82;;;5.10;;
22939;SDS011;11636;52.086;5.090;2024-01-10T08:48:18;11.20;;;5.22;;
22939;SDS011;11636;52.086;5.090;2024-01-10T08:50:45;10.57;;;5.88;;
22939;SDS011;11636;52.086;5.090;2024-01-10T08:53:18;9.30;;;5.40;;
22939;SDS011;11636;52.086;5.090;2024-01-10T08:55:52;10.48;;;5.47;;
22939;SDS011;11636;52.086;5.090;2024-01-10T08:58:25;10.95;;;5.53;;
22939;SDS011;11636;52.086;5.090;2024-01-10T09:00:52;9.73;;;5.55;;
22939;SDS011;11636;52.086;5.090;2024-01-10T09:03:27;13.85;;;6.00;;
22939;SDS011;11636;52.086;5.090;2024-01-10T09:05:54;10.93;;;5.97;;
22939;SDS011;11636;52.086;5.090;2024-01-10T09:08:34;11.90;;;5.75;;
22939;SDS011;11636;52.086;5.090;2024-01-10T09:11:07;11.32;;;5.57;;
22939;SDS011;11636;52.086;5.090;2024-01-10T09:13:34;9.25;;;5.25;;
22939;SDS011;11636;52.086;5.090;2024-01-10T09:16:10;11.52;;;6.15;;
22939;SDS011;11636;52.086;5.090;2024-01-10T09:18:38;13.30;;;6.25;;
22939;SDS011;11636;52.086;5.090;2024-01-10T09:21:13;12.75;;;5.82;;
22939;SDS011;11636;52.086;5.090;2024-01-10T09:23:45;10.27;;;5.57;;
22939;SDS011;11636;52.086;5.090;2024-01-10T09:26:19;10.88;;;5.70;;
22939;SDS011;11636;52.086;5.090;2024-01-10T09:28:46;11.63;;;6.00;;
22939;SDS011;11636;52.086;5.090;2024-01-10T09:31:19;11.10;;;5.90;;
22939;SDS011;11636;52.086;5.090;2024-01-10T09:33:46;9.13;;;5.40;;
22939;SDS011;11636;52.086;5.090;2024-01-10T09:36:20;10.27;;;5.28;;
22939;SDS011;11636;52.086;5.090;2024-01-10T09:38:46;9.30;;;5.13;;
22939;SDS011;11636;52.086;5.090;2024-01-10T09:41:19;10.20;;;5.35;;
22939;SDS011;11636;52.086;5.090;2024-01-10T09:43:54;9.10;;;4.65;;
22939;SDS011;11636;52.086;5.090;2024-01-10T09:46:22;11.80;;;5.35;;
22939;SDS011;11636;52.086;5.090;2024-01-10T09:48:55;11.68;;;4.72;;
22939;SDS011;11636;52.086;5.090;2024-01-10T09:51:28;9.88;;;5.50;;
22939;SDS011;11636;52.086;5.090;2024-01-10T09:54:02;11.77;;;5.65;;
22939;SDS011;11636;52.086;5.090;2024-01-10T09:56:31;11.45;;;5.65;;
22939;SDS011;11636;52.086;5.090;2024-01-10T09:59:04;9.88;;;5.15;;
22939;SDS011;11636;52.086;5.090;2024-01-10T10:01:39;11.40;;;5.80;;
22939;SDS011;11636;52.086;5.090;2024-01-10T10:04:13;12.27;;;5.47;;
22939;SDS011;11636;52.086;5.090;2024-01-10T10:06:57;12.77;;;5.50;;
22939;SDS011;11636;52.086;5.090;2024-01-10T10:09:29;10.93;;;5.35;;
22939;SDS011;11636;52.086;5.090;2024-01-10T10:12:04;10.52;;;5.43;;
22939;SDS011;11636;52.086;5.090;2024-01-10T10:14:37;10.30;;;5.57;;
22939;SDS011;11636;52.086;5.090;2024-01-10T10:17:14;9.70;;;5.38;;
22939;SDS011;11636;52.086;5.090;2024-01-10T10:19:48;12.27;;;5.55;;
22939;SDS011;11636;52.086;5.090;2024-01-10T10:22:21;11.45;;;5.63;;
22939;SDS011;11636;52.086;5.090;2024-01-10T10:24:54;11.38;;;5.97;;
22939;SDS011;11636;52.086;5.090;2024-01-10T10:27:22;10.80;;;5.57;;
22939;SDS011;11636;52.086;5.090;2024-01-10T10:29:55;11.18;;;5.60;;
22939;SDS011;11636;52.086;5.090;2024-01-10T10:32:22;11.88;;;5.60;;
22939;SDS011;11636;52.086;5.090;2024-01-10T10:34:49;10.82;;;5.50;;
22939;SDS011;11636;52.086;5.090;2024-01-10T10:37:23;10.02;;;5.22;;
22939;SDS011;11636;52.086;5.090;2024-01-10T10:39:56;10.80;;;6.05;;
22939;SDS011;11636;52.086;5.090;2024-01-10T10:42:22;11.32;;;5.65;;
22939;SDS011;11636;52.086;5.090;2024-01-10T10:44:52;10.05;;;5.25;;
22939;SDS011;11636;52.086;5.090;2024-01-10T10:47:31;11.23;;;5.47;;
22939;SDS011;11636;52.086;5.090;2024-01-10T10:50:03;12.27;;;5.72;;
22939;SDS011;11636;52.086;5.090;2024-01-10T10:52:38;9.82;;;5.78;;
22939;SDS011;11636;52.086;5.090;2024-01-10T10:55:07;10.13;;;5.50;;
22939;SDS011;11636;52.086;5.090;2024-01-10T10:57:34;10.90;;;5.40;;
22939;SDS011;11636;52.086;5.090;2024-01-10T11:00:14;9.88;;;5.68;;
22939;SDS011;11636;52.086;5.090;2024-01-10T11:02:41;11.55;;;5.70;;
22939;SDS011;11636;52.086;5.090;2024-01-10T11:05:16;11.35;;;5.20;;
22939;SDS011;11636;52.086;5.090;2024-01-10T11:07:43;10.45;;;5.80;;
22939;SDS011;11636;52.086;5.090;2024-01-10T11:10:27;9.57;;;5.00;;
22939;SDS011;11636;52.086;5.090;2024-01-10T11:18:54;10.93;;;5.65;;
22939;SDS011;11636;52.086;5.090;2024-01-10T11:21:56;13.15;;;6.10;;
22939;SDS011;11636;52.086;5.090;2024-01-10T11:24:47;9.63;;;5.50;;
22939;SDS011;11636;52.086;5.090;2024-01-10T11:27:21;10.98;;;6.00;;
22939;SDS011;11636;52.086;5.090;2024-01-10T11:29:48;12.73;;;6.13;;
22939;SDS011;11636;52.086;5.090;2024-01-10T11:32:23;11.35;;;6.07;;
22939;SDS011;11636;52.086;5.090;2024-01-10T11:34:57;9.75;;;5.63;;
22939;SDS011;11636;52.086;5.090;2024-01-10T11:37:43;10.90;;;5.85;;
22939;SDS011;11636;52.086;5.090;2024-01-10T11:40:23;11.32;;;5.57;;
22939;SDS011;11636;52.086;5.090;2024-01-10T11:43:17;9.40;;;5.60;;
22939;SDS011;11636;52.086;5.090;2024-01-10T11:45:58;11.52;;;5.50;;
22939;SDS011;11636;52.086;5.090;2024-01-10T11:48:31;11.93;;;6.05;;
22939;SDS011;11636;52.086;5.090;2024-01-10T11:51:05;11.75;;;5.90;;
22939;SDS011;11636;52.086;5.090;2024-01-10T11:53:45;11.68;;;6.18;;
22939;SDS011;11636;52.086;5.090;2024-01-10T11:56:19;9.88;;;5.10;;
22939;SDS011;11636;52.086;5.090;2024-01-10T11:59:09;11.30;;;5.80;;
22939;SDS011;11636;52.086;5.090;2024-01-10T12:01:44;10.77;;;5.65;;
22939;SDS011;11636;52.086;5.090;2024-01-10T12:04:11;9.60;;;5.55;;
22939;SDS011;11636;52.086;5.090;2024-01-10T12:06:55;13.85;;;6.32;;
22939;SDS011;11636;52.086;5.090;2024-01-10T12:09:24;11.80;;;6.13;;
22939;SDS011;11636;52.086;5.090;2024-01-10T12:11:58;12.73;;;5.90;;
22939;SDS011;11636;52.086;5.090;2024-01-10T12:14:25;10.35;;;5.30;;
22939;SDS011;11636;52.086;5.090;2024-01-10T12:16:52;11.45;;;5.88;;
22939;SDS011;11636;52.086;5.090;2024-01-10T12:19:26;10.50;;;5.28;;
22939;SDS011;11636;52.086;5.090;2024-01-10T12:21:54;10.25;;;5.68;;
22939;SDS011;11636;52.086;5.090;2024-01-10T12:24:28;11.45;;;5.38;;
22939;SDS011;11636;52.086;5.090;2024-01-10T12:26:58;10.27;;;5.70;;
22939;SDS011;11636;52.086;5.090;2024-01-10T12:29:32;10.80;;;5.72;;
22939;SDS011;11636;52.086;5.090;2024-01-10T12:32:05;10.82;;;5.57;;
22939;SDS011;11636;52.086;5.090;2024-01-10T12:34:33;11.60;;;5.55;;
22939;SDS011;11636;52.086;5.090;2024-01-10T12:37:11;10.60;;;5.38;;
22939;SDS011;11636;52.086;5.090;2024-01-10T12:39:38;11.75;;;5.70;;
22939;SDS011;11636;52.086;5.090;2024-01-10T12:42:11;10.27;;;5.50;;
22939;SDS011;11636;52.086;5.090;2024-01-10T12:44:38;11.00;;;5.72;;
22939;SDS011;11636;52.086;5.090;2024-01-10T12:47:19;11.73;;;5.97;;
22939;SDS011;11636;52.086;5.090;2024-01-10T12:49:47;7.82;;;4.00;;
22939;SDS011;11636;52.086;5.090;2024-01-10T12:52:14;11.98;;;6.25;;
22939;SDS011;11636;52.086;5.090;2024-01-10T12:54:50;10.20;;;5.50;;
22939;SDS011;11636;52.086;5.090;2024-01-10T12:57:17;12.38;;;5.65;;
22939;SDS011;11636;52.086;5.090;2024-01-10T12:59:51;11.10;;;5.32;;
22939;SDS011;11636;52.086;5.090;2024-01-10T13:02:25;13.45;;;6.38;;
22939;SDS011;11636;52.086;5.090;2024-01-10T13:04:58;10.98;;;6.05;;
22939;SDS011;11636;52.086;5.090;2024-01-10T13:07:25;11.25;;;5.72;;
22939;SDS011;11636;52.086;5.090;2024-01-10T13:10:00;14.45;;;6.68;;
22939;SDS011;11636;52.086;5.090;2024-01-10T13:12:34;12.50;;;5.68;;
22939;SDS011;11636;52.086;5.090;2024-01-10T13:15:00;9.25;;;5.25;;
22939;SDS011;11636;52.086;5.090;2024-01-10T13:17:28;11.75;;;6.30;;
22939;SDS011;11636;52.086;5.090;2024-01-10T13:20:03;12.95;;;5.93;;
22939;SDS011;11636;52.086;5.090;2024-01-10T13:22:31;11.73;;;6.32;;
22939;SDS011;11636;52.086;5.090;2024-01-10T13:25:05;10.95;;;5.90;;
22939;SDS011;11636;52.086;5.090;2024-01-10T13:27:39;9.75;;;5.70;;
22939;SDS011;11636;52.086;5.090;2024-01-10T13:30:07;11.48;;;6.00;;
22939;SDS011;11636;52.086;5.090;2024-01-10T13:32:38;12.88;;;6.07;;
22939;SDS011;11636;52.086;5.090;2024-01-10T13:35:11;11.52;;;6.00;;
22939;SDS011;11636;52.086;5.090;2024-01-10T13:37:44;11.75;;;6.15;;
22939;SDS011;11636;52.086;5.090;2024-01-10T13:40:12;11.25;;;5.70;;
22939;SDS011;11636;52.086;5.090;2024-01-10T13:42:46;10.07;;;5.80;;
22939;SDS011;11636;52.086;5.090;2024-01-10T13:45:13;12.10;;;6.30;;
22939;SDS011;11636;52.086;5.090;2024-01-10T13:47:46;10.90;;;5.75;;
22939;SDS011;11636;52.086;5.090;2024-01-10T13:50:22;14.27;;;6.00;;
22939;SDS011;11636;52.086;5.090;2024-01-10T13:52:51;13.52;;;5.93;;
22939;SDS011;11636;52.086;5.090;2024-01-10T13:55:24;10.50;;;5.90;;
22939;SDS011;11636;52.086;5.090;2024-01-10T13:57:51;10.65;;;6.20;;
22939;SDS011;11636;52.086;5.090;2024-01-10T14:00:24;10.75;;;5.60;;
22939;SDS011;11636;52.086;5.090;2024-01-10T14:02:51;10.63;;;6.10;;
22939;SDS011;11636;52.086;5.090;2024-01-10T14:05:27;11.27;;;5.70;;
22939;SDS011;11636;52.086;5.090;2024-01-10T14:07:54;11.13;;;5.90;;
22939;SDS011;11636;52.086;5.090;2024-01-10T14:10:29;13.35;;;6.20;;
22939;SDS011;11636;52.086;5.090;2024-01-10T14:13:02;12.05;;;5.68;;
22939;SDS011;11636;52.086;5.090;2024-01-10T14:15:30;10.30;;;5.70;;
22939;SDS011;11636;52.086;5.090;2024-01-10T14:18:03;12.07;;;6.20;;
22939;SDS011;11636;52.086;5.090;2024-01-10T14:20:31;10.00;;;5.60;;
22939;SDS011;11636;52.086;5.090;2024-01-10T14:23:07;13.18;;;6.50;;
22939;SDS011;11636;52.086;5.090;2024-01-10T14:25:34;11.40;;;5.93;;
22939;SDS011;11636;52.086;5.090;2024-01-10T14:28:08;13.27;;;6.75;;
22939;SDS011;11636;52.086;5.090;2024-01-10T14:30:35;12.20;;;6.38;;
22939;SDS011;11636;52.086;5.090;2024-01-10T14:33:15;12.70;;;6.32;;
22939;SDS011;11636;52.086;5.090;2024-01-10T14:35:43;10.55;;;5.68;;
22939;SDS011;11636;52.086;5.090;2024-01-10T14:38:17;9.65;;;5.30;;
22939;SDS011;11636;52.086;5.090;2024-01-10T14:40:44;10.95;;;5.90;;
22939;SDS011;11636;52.086;5.090;2024-01-10T14:43:11;9.65;;;5.03;;
22939;SDS011;11636;52.086;5.090;2024-01-10T14:45:45;9.63;;;5.10;;
22939;SDS011;11636;52.086;5.090;2024-01-10T14:48:12;10.50;;;5.40;;
22939;SDS011;11636;52.086;5.090;2024-01-10T14:50:46;11.95;;;5.10;;
22939;SDS011;11636;52.086;5.090;2024-01-10T14:53:13;9.57;;;5.47;;
22939;SDS011;11636;52.086;5.090;2024-01-10T14:55:46;10.82;;;5.80;;
22939;SDS011;11636;52.086;5.090;2024-01-10T14:58:13;10.45;;;5.82;;
22939;SDS011;11636;52.086;5.090;2024-01-10T15:00:47;10.30;;;5.72;;
22939;SDS011;11636;52.086;5.090;2024-01-10T15:03:14;9.55;;;5.82;;
22939;SDS011;11636;52.086;5.090;2024-01-10T15:05:52;10.63;;;5.63;;
22939;SDS011;11636;52.086;5.090;2024-01-10T15:08:20;10.50;;;5.80;;
22939;SDS011;11636;52.086;5.090;2024-01-10T15:10:47;11.40;;;5.80;;